Time;durP1;ratioP1;P1;durP2;ratioP2;P2;SDS_P1;SDS_P2;PMS_P1;PMS_P2;Temp;Humidity;BMP_temperature;BMP_pressure;BME280_temperature;BME280_humidity;BME280_pressure;Samples;Min_cycle;Max_cycle;Signal;HPM_P1;HPM_P2
2022/04/27 00:01:21;;;;;;;;;;;5.90;99.90;;;;;;2622085;46;19963;31
2022/04/27 00:03:56;;;;;;;;;;;5.90;99.90;;;;;;2603079;54;20783;31
2022/04/27 00:06:32;;;;;;;;;;;5.80;99.90;;;;;;2603624;54;20795;31
2022/04/27 00:09:11;;;;;;;;;;;5.80;99.90;;;;;;2603869;54;19946;31
2022/04/27 00:11:50;;;;;;;;;;;5.80;99.90;;;;;;2622152;46;19938;31
2022/04/27 00:14:25;;;;;;;;;;;5.80;99.90;;;;;;2603305;54;19934;31
2022/04/27 00:17:00;;;;;;;;;;;5.70;99.90;;;;;;2622216;46;19974;31
2022/04/27 00:19:36;;;;;;;;;;;5.70;99.90;;;;;;2621758;46;19931;31
2022/04/27 00:22:11;;;;;;;;;;;5.70;99.90;;;;;;2603665;54;19993;31
2022/04/27 00:24:50;;;;;;;;;;;5.60;99.90;;;;;;2603582;54;19992;31
2022/04/27 00:27:26;;;;;;;;;;;5.60;99.90;;;;;;2622029;47;19947;31
2022/04/27 00:30:00;;;;;;;;;;;5.50;99.90;;;;;;2622179;47;19997;31
2022/04/27 00:32:36;;;;;;;;;;;5.50;99.90;;;;;;2621473;47;19941;31
2022/04/27 00:35:13;;;;;;;;;;;5.40;99.90;;;;;;2621466;47;19941;31
2022/04/27 00:37:49;;;;;;;;;;;5.60;99.90;;;;;;2602828;54;20074;31
2022/04/27 00:40:27;;;;;;;;;;;5.40;99.90;;;;;;2603521;54;20790;31
2022/04/27 00:43:02;;;;;;;;;;;5.40;99.90;;;;;;2621863;47;19986;31
2022/04/27 00:45:37;;;;;;;;;;;5.40;99.90;;;;;;2603475;54;20849;31
2022/04/27 00:48:16;;;;;;;;;;;5.40;99.90;;;;;;2603429;54;19990;31
2022/04/27 00:50:52;;;;;;;;;;;5.30;99.90;;;;;;2622207;47;19935;31
2022/04/27 00:53:26;;;;;;;;;;;5.20;99.90;;;;;;2602625;54;19958;31
2022/04/27 00:56:03;;;;;;;;;;;5.20;99.90;;;;;;2603692;54;20714;31
2022/04/27 00:58:38;;;;;;;;;;;5.10;99.90;;;;;;2603151;54;19993;31
2022/04/27 01:01:29;;;;;;;;;;;5.10;99.90;;;;;;2622110;47;19958;31
2022/04/27 01:04:07;;;;;;;;;;;5.10;99.90;;;;;;2603363;54;19935;31
2022/04/27 01:06:42;;;;;;;;;;;5.10;99.90;;;;;;2603387;54;20819;31
2022/04/27 01:09:17;;;;;;;;;;;5.00;99.90;;;;;;2622189;47;19946;31
2022/04/27 01:11:54;;;;;;;;;;;5.00;99.90;;;;;;2621694;47;19935;31
2022/04/27 01:14:31;;;;;;;;;;;5.00;99.90;;;;;;2603540;54;19942;31
2022/04/27 01:17:09;;;;;;;;;;;4.90;99.90;;;;;;2613003;46;20767;31
2022/04/27 01:19:43;;;;;;;;;;;4.90;99.90;;;;;;2603573;54;19942;31
2022/04/27 01:22:22;;;;;;;;;;;4.90;99.90;;;;;;2604256;54;19985;31
2022/04/27 01:25:00;;;;;;;;;;;4.90;99.90;;;;;;2603455;54;20659;31
2022/04/27 01:27:38;;;;;;;;;;;4.90;99.90;;;;;;2615471;46;19997;31
2022/04/27 01:30:16;;;;;;;;;;;4.90;99.90;;;;;;2604410;54;19935;31
2022/04/27 01:32:50;;;;;;;;;;;4.90;99.90;;;;;;2622396;46;20755;31
2022/04/27 01:35:25;;;;;;;;;;;4.90;99.90;;;;;;2604113;54;19938;31
2022/04/27 01:38:04;;;;;;;;;;;4.90;99.90;;;;;;2622674;46;20804;31
2022/04/27 01:40:42;;;;;;;;;;;4.80;99.90;;;;;;2604130;54;19993;31
2022/04/27 01:43:19;;;;;;;;;;;4.80;99.90;;;;;;2604127;54;19941;31
2022/04/27 01:45:53;;;;;;;;;;;4.80;99.90;;;;;;2702863;39;20923;31
2022/04/27 01:48:28;;;;;;;;;;;4.80;99.90;;;;;;2604326;54;19934;31
2022/04/27 01:51:09;;;;;;;;;;;4.90;99.90;;;;;;2604177;54;19985;31
2022/04/27 01:56:34;;;;;;;;;;;4.90;99.90;;;;;;2604236;54;20045;31
2022/04/27 01:59:12;;;;;;;;;;;4.90;99.90;;;;;;2604005;54;19935;31
2022/04/27 02:01:47;;;;;;;;;;;4.90;99.90;;;;;;2612492;46;19938;31
2022/04/27 02:04:24;;;;;;;;;;;4.90;99.90;;;;;;2603295;54;19945;31
2022/04/27 02:07:03;;;;;;;;;;;4.90;99.90;;;;;;2604281;54;20777;31
2022/04/27 02:09:37;;;;;;;;;;;4.90;99.90;;;;;;2603266;54;20775;31
2022/04/27 02:12:16;;;;;;;;;;;4.90;99.90;;;;;;2622608;46;19985;31
2022/04/27 02:15:01;;;;;;;;;;;4.80;99.90;;;;;;2604067;54;19934;31
2022/04/27 02:17:37;;;;;;;;;;;4.90;99.90;;;;;;2603974;54;19935;31
2022/04/27 02:20:14;;;;;;;;;;;4.80;99.90;;;;;;2621963;46;19934;31
2022/04/27 02:22:51;;;;;;;;;;;4.90;99.90;;;;;;2603403;54;19942;31
2022/04/27 02:25:25;;;;;;;;;;;4.80;99.90;;;;;;2604025;54;20749;31
2022/04/27 02:28:03;;;;;;;;;;;4.80;99.90;;;;;;2622041;46;19946;31
2022/04/27 02:30:38;;;;;;;;;;;4.80;99.90;;;;;;2604076;54;20783;31
2022/04/27 02:33:13;;;;;;;;;;;4.80;99.90;;;;;;2604023;54;19938;31
2022/04/27 02:35:52;;;;;;;;;;;4.80;99.90;;;;;;2622593;46;19942;31
2022/04/27 02:38:30;;;;;;;;;;;4.80;99.90;;;;;;2614525;46;19993;31
2022/04/27 02:41:12;;;;;;;;;;;4.70;99.90;;;;;;2622514;46;19998;31
2022/04/27 02:43:53;;;;;;;;;;;4.70;99.90;;;;;;2603914;54;19931;31
2022/04/27 02:46:29;;;;;;;;;;;4.70;99.90;;;;;;2603654;54;19942;31
2022/04/27 02:51:54;;;;;;;;;;;4.60;99.90;;;;;;2604083;54;19941;31
2022/04/27 02:54:51;;;;;;;;;;;4.60;99.90;;;;;;2604110;54;20741;31
2022/04/27 02:57:26;;;;;;;;;;;4.60;99.90;;;;;;2603210;54;19946;31
2022/04/27 03:00:05;;;;;;;;;;;4.60;99.90;;;;;;2617968;46;20773;31
2022/04/27 03:02:43;;;;;;;;;;;4.60;99.90;;;;;;2604196;54;20688;31
2022/04/27 03:05:22;;;;;;;;;;;4.60;99.90;;;;;;2609476;46;20016;31
2022/04/27 03:07:59;;;;;;;;;;;4.60;99.90;;;;;;2602971;54;20788;31
2022/04/27 03:10:36;;;;;;;;;;;4.50;99.90;;;;;;2611922;46;19958;31
2022/04/27 03:13:12;;;;;;;;;;;4.50;99.90;;;;;;2622485;46;20115;31
2022/04/27 03:15:50;;;;;;;;;;;4.50;99.90;;;;;;2622360;46;20062;31
2022/04/27 03:18:25;;;;;;;;;;;4.50;99.90;;;;;;2603699;54;20740;31
2022/04/27 03:21:02;;;;;;;;;;;4.40;99.90;;;;;;2603721;54;19941;31
2022/04/27 03:23:37;;;;;;;;;;;4.40;99.90;;;;;;2603658;54;19954;31
2022/04/27 03:26:16;;;;;;;;;;;4.40;99.90;;;;;;2604000;54;19935;31
2022/04/27 03:28:51;;;;;;;;;;;4.40;99.90;;;;;;2603853;54;20028;31
2022/04/27 03:31:26;;;;;;;;;;;4.40;99.90;;;;;;2603648;54;19935;31
2022/04/27 03:34:02;;;;;;;;;;;4.40;99.90;;;;;;2603934;54;19935;31
2022/04/27 03:36:44;;;;;;;;;;;4.30;99.90;;;;;;2603722;54;21517;31
2022/04/27 03:39:21;;;;;;;;;;;4.30;99.90;;;;;;2609583;46;19942;31
2022/04/27 03:42:17;;;;;;;;;;;4.20;99.90;;;;;;2622409;46;19935;31
2022/04/27 03:45:00;;;;;;;;;;;4.20;99.90;;;;;;2603760;54;19950;31
2022/04/27 03:47:43;;;;;;;;;;;4.20;99.90;;;;;;2603686;54;19957;31
2022/04/27 03:50:21;;;;;;;;;;;4.20;99.90;;;;;;2603600;54;19986;31
2022/04/27 03:53:02;;;;;;;;;;;4.20;99.90;;;;;;2622343;46;19947;31
2022/04/27 03:55:38;;;;;;;;;;;4.10;99.90;;;;;;2603775;54;19935;31
2022/04/27 03:58:13;;;;;;;;;;;4.10;99.90;;;;;;2621867;46;20736;31
2022/04/27 04:00:48;;;;;;;;;;;4.10;99.90;;;;;;2603742;54;19935;31
2022/04/27 04:03:30;;;;;;;;;;;4.10;99.90;;;;;;2603635;54;20770;31
2022/04/27 04:06:05;;;;;;;;;;;4.10;99.90;;;;;;2622321;46;19942;31
2022/04/27 04:08:52;;;;;;;;;;;4.90;99.90;;;;;;2603628;54;20746;31
2022/04/27 04:11:33;;;;;;;;;;;4.30;99.90;;;;;;2603847;54;19942;31
2022/04/27 04:14:27;;;;;;;;;;;4.40;99.90;;;;;;2603541;54;20732;31
2022/04/27 04:17:06;;;;;;;;;;;4.60;99.90;;;;;;2603780;54;19934;31
2022/04/27 04:19:58;;;;;;;;;;;4.70;99.90;;;;;;2603361;54;19942;31
2022/04/27 04:23:07;;;;;;;;;;;4.80;99.90;;;;;;2603587;54;19935;31
2022/04/27 04:28:46;;;;;;;;;;;5.20;99.90;;;;;;2603569;54;19935;31
2022/04/27 04:31:20;;;;;;;;;;;5.40;99.90;;;;;;2603836;54;19934;31
2022/04/27 04:33:56;;;;;;;;;;;5.60;99.90;;;;;;2622110;47;19935;31
2022/04/27 04:36:31;;;;;;;;;;;5.80;99.90;;;;;;2602745;54;20815;31
2022/04/27 04:39:06;;;;;;;;;;;6.00;99.90;;;;;;2621807;47;20771;31
2022/04/27 04:41:46;;;;;;;;;;;6.20;99.90;;;;;;2602705;54;19993;31
2022/04/27 04:44:25;;;;;;;;;;;6.40;99.90;;;;;;2603659;54;19942;31
2022/04/27 04:47:16;;;;;;;;;;;6.60;99.90;;;;;;2622243;47;19962;31
2022/04/27 04:50:03;;;;;;;;;;;6.90;99.90;;;;;;2603773;54;19950;31
2022/04/27 04:52:58;;;;;;;;;;;7.10;99.90;;;;;;2604308;54;19988;31
2022/04/27 04:55:52;;;;;;;;;;;7.40;99.90;;;;;;2604236;54;19941;31
2022/04/27 04:58:49;;;;;;;;;;;7.70;99.90;;;;;;2604421;54;19942;31
2022/04/27 05:01:53;;;;;;;;;;;8.00;99.90;;;;;;2604043;54;20735;31
2022/04/27 05:04:47;;;;;;;;;;;8.30;99.90;;;;;;2604424;54;20756;31
2022/04/27 05:07:55;;;;;;;;;;;8.60;99.90;;;;;;2604278;54;19966;31
2022/04/27 05:10:49;;;;;;;;;;;8.90;99.90;;;;;;2604530;54;21810;31
2022/04/27 05:13:45;;;;;;;;;;;8.80;99.90;;;;;;2622752;46;20058;31
2022/04/27 05:16:26;;;;;;;;;;;8.70;99.90;;;;;;2622769;46;19946;31
2022/04/27 05:21:53;;;;;;;;;;;8.60;99.90;;;;;;2603943;54;20792;31
2022/04/27 05:24:48;;;;;;;;;;;8.50;99.90;;;;;;2604245;54;19941;31
2022/04/27 05:27:42;;;;;;;;;;;8.60;99.90;;;;;;2604494;54;20013;31
2022/04/27 05:33:49;;;;;;;;;;;9.20;99.90;;;;;;2604362;54;19960;31
2022/04/27 05:36:58;;;;;;;;;;;9.60;99.90;;;;;;2603984;54;20838;31
2022/04/27 05:39:54;;;;;;;;;;;9.80;99.90;;;;;;2604050;54;20743;31
2022/04/27 05:42:53;;;;;;;;;;;10.10;99.90;;;;;;2604131;54;19934;31
2022/04/27 05:45:48;;;;;;;;;;;10.40;99.90;;;;;;2622408;46;19943;31
2022/04/27 05:48:41;;;;;;;;;;;10.70;99.90;;;;;;2604140;54;20007;31
2022/04/27 05:54:54;;;;;;;;;;;11.20;99.90;;;;;;2603855;54;20055;31
2022/04/27 05:57:54;;;;;;;;;;;11.60;99.90;;;;;;2603930;54;19935;31
2022/04/27 06:00:53;;;;;;;;;;;12.00;99.90;;;;;;2603651;54;19934;31
2022/04/27 06:03:41;;;;;;;;;;;12.20;99.90;;;;;;2603861;54;20025;31
2022/04/27 06:06:18;;;;;;;;;;;12.50;99.90;;;;;;2603960;54;19934;31
2022/04/27 06:08:55;;;;;;;;;;;12.80;99.90;;;;;;2622401;46;20714;31
2022/04/27 06:11:47;;;;;;;;;;;13.00;99.90;;;;;;2603789;54;19982;31
2022/04/27 06:14:39;;;;;;;;;;;13.30;99.90;;;;;;2604233;54;19938;31
2022/04/27 06:17:27;;;;;;;;;;;13.50;99.90;;;;;;2603892;54;20772;31
2022/04/27 06:20:04;;;;;;;;;;;13.80;99.90;;;;;;2603163;54;20847;31
2022/04/27 06:22:39;;;;;;;;;;;14.00;99.90;;;;;;2617012;46;19943;31
2022/04/27 06:25:25;;;;;;;;;;;14.00;99.90;;;;;;2603982;54;19935;31
2022/04/27 06:28:29;;;;;;;;;;;14.20;99.90;;;;;;2603844;54;20814;31
2022/04/27 06:31:04;;;;;;;;;;;14.70;99.90;;;;;;2604066;54;19942;31
2022/04/27 06:33:40;;;;;;;;;;;15.10;99.90;;;;;;2603674;54;19986;31
2022/04/27 06:36:14;;;;;;;;;;;15.30;99.90;;;;;;2617979;46;19950;31
2022/04/27 06:38:50;;;;;;;;;;;15.40;99.90;;;;;;2621745;46;20628;31
2022/04/27 06:41:40;;;;;;;;;;;15.60;99.90;;;;;;2622405;46;19942;31
2022/04/27 06:44:33;;;;;;;;;;;15.70;99.90;;;;;;2604135;54;19935;31
2022/04/27 06:47:46;;;;;;;;;;;15.90;99.90;;;;;;2603727;54;20846;31
2022/04/27 06:50:39;;;;;;;;;;;16.00;99.90;;;;;;2604143;54;20709;31
2022/04/27 06:53:47;;;;;;;;;;;16.10;99.90;;;;;;2603751;54;20065;31
2022/04/27 06:57:00;;;;;;;;;;;16.30;99.90;;;;;;2603704;54;19970;31
2022/04/27 06:59:57;;;;;;;;;;;16.50;99.90;;;;;;2603773;54;20759;31
2022/04/27 07:02:32;;;;;;;;;;;16.60;99.90;;;;;;2603647;54;20858;31
2022/04/27 07:05:12;;;;;;;;;;;16.90;99.90;;;;;;2603921;54;19981;31
2022/04/27 07:07:51;;;;;;;;;;;17.30;99.90;;;;;;2622427;46;19961;31
2022/04/27 07:10:26;;;;;;;;;;;17.60;99.90;;;;;;2622081;46;20797;31
2022/04/27 07:13:00;;;;;;;;;;;17.70;99.90;;;;;;2603759;54;19935;31
2022/04/27 07:15:39;;;;;;;;;;;17.80;99.90;;;;;;2603978;54;20002;31
2022/04/27 07:18:15;;;;;;;;;;;17.90;99.90;;;;;;2603950;54;20002;31
2022/04/27 07:20:50;;;;;;;;;;;18.00;99.90;;;;;;2603880;54;19939;31
2022/04/27 07:23:24;;;;;;;;;;;18.00;99.90;;;;;;2621972;46;20801;31
2022/04/27 07:26:00;;;;;;;;;;;18.10;99.90;;;;;;2622022;46;19942;31
2022/04/27 07:28:41;;;;;;;;;;;18.20;99.90;;;;;;2603849;54;19941;31
2022/04/27 07:31:19;;;;;;;;;;;18.30;99.90;;;;;;2606727;46;19942;31
2022/04/27 07:36:33;;;;;;;;;;;18.30;99.90;;;;;;2603731;54;20021;31
2022/04/27 07:39:07;;;;;;;;;;;18.20;99.90;;;;;;2603771;54;19935;31
2022/04/27 07:41:49;;;;;;;;;;;18.20;99.90;;;;;;2603585;54;20737;31
2022/04/27 07:44:34;;;;;;;;;;;18.40;99.90;;;;;;2603620;54;19942;31
2022/04/27 07:47:13;;;;;;;;;;;18.60;99.90;;;;;;2603591;54;19950;31
2022/04/27 07:49:51;;;;;;;;;;;18.80;99.90;;;;;;2603653;54;21285;31
2022/04/27 07:52:31;;;;;;;;;;;18.90;99.90;;;;;;2603448;54;19986;31
2022/04/27 07:55:06;;;;;;;;;;;19.10;99.90;;;;;;2622128;46;19946;31
2022/04/27 07:57:42;;;;;;;;;;;19.20;99.90;;;;;;2603546;54;19994;31
2022/04/27 08:00:19;;;;;;;;;;;19.60;99.90;;;;;;2603329;54;19935;31
2022/04/27 08:02:57;;;;;;;;;;;19.70;99.90;;;;;;2602887;54;19935;31
2022/04/27 08:05:32;;;;;;;;;;;19.90;99.90;;;;;;2603261;54;19934;31
2022/04/27 08:08:09;;;;;;;;;;;20.10;99.90;;;;;;2603795;54;19993;31
2022/04/27 08:10:44;;;;;;;;;;;20.10;99.90;;;;;;2603690;54;20794;31
2022/04/27 08:13:21;;;;;;;;;;;20.20;99.70;;;;;;2720877;39;20395;31
2022/04/27 08:15:58;;;;;;;;;;;20.20;99.90;;;;;;2603409;54;20887;31
2022/04/27 08:18:37;;;;;;;;;;;20.50;99.90;;;;;;2621551;46;20838;31
2022/04/27 08:21:21;;;;;;;;;;;20.90;96.90;;;;;;2603668;54;19942;31
2022/04/27 08:23:55;;;;;;;;;;;21.10;96.90;;;;;;2603178;54;19934;31
2022/04/27 08:26:33;;;;;;;;;;;21.20;96.70;;;;;;2605153;54;19934;31
2022/04/27 08:29:08;;;;;;;;;;;21.40;94.50;;;;;;2605363;54;21290;31
2022/04/27 08:31:55;;;;;;;;;;;21.60;94.20;;;;;;2605038;54;19934;31
2022/04/27 08:34:37;;;;;;;;;;;21.80;92.80;;;;;;2623973;46;19935;31
2022/04/27 08:37:16;;;;;;;;;;;22.00;92.00;;;;;;2605416;54;19941;31
2022/04/27 08:39:51;;;;;;;;;;;22.10;91.90;;;;;;2605225;54;21279;31
2022/04/27 08:42:36;;;;;;;;;;;22.10;91.20;;;;;;2704027;39;20416;31
2022/04/27 08:45:13;;;;;;;;;;;22.20;90.50;;;;;;2605382;54;19934;31
2022/04/27 08:47:48;;;;;;;;;;;22.10;90.30;;;;;;2605400;54;19935;31
2022/04/27 08:50:28;;;;;;;;;;;22.20;89.00;;;;;;2623802;46;19934;31
2022/04/27 08:53:04;;;;;;;;;;;22.30;88.60;;;;;;2703968;39;21361;31
2022/04/27 08:55:47;;;;;;;;;;;22.40;88.20;;;;;;2619068;46;19969;31
2022/04/27 08:58:22;;;;;;;;;;;22.20;86.70;;;;;;2607072;46;19942;31
2022/04/27 09:01:15;;;;;;;;;;;22.20;86.10;;;;;;2605150;54;19963;31
2022/04/27 09:03:50;;;;;;;;;;;22.20;85.80;;;;;;2605140;54;20790;31
2022/04/27 09:06:29;;;;;;;;;;;22.20;86.30;;;;;;2623631;46;20018;31
2022/04/27 09:09:10;;;;;;;;;;;22.10;86.00;;;;;;2604292;54;19935;31
2022/04/27 09:11:48;;;;;;;;;;;22.20;84.70;;;;;;2606183;46;19942;31
2022/04/27 09:14:21;;;;;;;;;;;22.40;82.50;;;;;;2623491;46;19942;31
2022/04/27 09:22:34;;;;;;;;;;;22.60;83.50;;;;;;2605152;54;20481;31
2022/04/27 09:25:16;;;;;;;;;;;22.80;83.60;;;;;;2722487;39;20915;31
2022/04/27 09:27:55;;;;;;;;;;;22.60;79.50;;;;;;2605195;54;19941;31
2022/04/27 09:30:34;;;;;;;;;;;22.20;79.50;;;;;;2623539;46;19996;31
2022/04/27 09:33:32;;;;;;;;;;;22.10;81.40;;;;;;2604182;54;20797;31
2022/04/27 09:36:23;;;;;;;;;;;22.10;78.50;;;;;;2604963;46;20007;31
2022/04/27 09:39:03;;;;;;;;;;;21.70;78.70;;;;;;2603790;54;20793;31
2022/04/27 09:41:45;;;;;;;;;;;21.30;79.50;;;;;;2622812;46;19934;31
2022/04/27 09:44:29;;;;;;;;;;;20.90;78.50;;;;;;2622374;46;19950;31
2022/04/27 09:47:06;;;;;;;;;;;20.50;82.30;;;;;;2622201;46;19935;31
2022/04/27 09:49:46;;;;;;;;;;;20.20;82.80;;;;;;2622591;46;19935;31
2022/04/27 09:52:23;;;;;;;;;;;20.00;81.10;;;;;;2603864;54;19942;31
2022/04/27 09:55:05;;;;;;;;;;;19.90;82.30;;;;;;2603889;54;19935;31
2022/04/27 09:57:42;;;;;;;;;;;19.70;82.50;;;;;;2604011;54;20005;31
2022/04/27 10:00:19;;;;;;;;;;;19.60;84.00;;;;;;2622349;46;20013;31
2022/04/27 10:02:55;;;;;;;;;;;19.50;83.20;;;;;;2603951;54;19999;31
2022/04/27 10:05:31;;;;;;;;;;;19.40;82.60;;;;;;2622243;46;19935;31
2022/04/27 10:08:13;;;;;;;;;;;19.20;84.10;;;;;;2603634;54;19954;31
2022/04/27 10:10:57;;;;;;;;;;;19.00;85.00;;;;;;2622399;46;20021;31
2022/04/27 10:13:34;;;;;;;;;;;18.90;85.30;;;;;;2604015;54;19935;31
2022/04/27 10:16:08;;;;;;;;;;;18.90;84.80;;;;;;2603958;54;20737;31
2022/04/27 10:18:52;;;;;;;;;;;18.90;85.30;;;;;;2622159;46;19934;31
2022/04/27 10:21:39;;;;;;;;;;;18.80;87.20;;;;;;2622240;46;19989;31
2022/04/27 10:24:20;;;;;;;;;;;18.90;85.20;;;;;;2622437;46;19998;31
2022/04/27 10:27:00;;;;;;;;;;;19.20;83.40;;;;;;2622497;46;19941;31
2022/04/27 10:29:41;;;;;;;;;;;19.20;82.90;;;;;;2603767;54;19935;31
2022/04/27 10:32:17;;;;;;;;;;;19.00;83.20;;;;;;2622656;46;19993;31
2022/04/27 10:34:57;;;;;;;;;;;18.90;82.30;;;;;;2603620;54;20838;31
2022/04/27 10:37:34;;;;;;;;;;;18.80;82.00;;;;;;2603556;54;20762;31
2022/04/27 10:40:24;;;;;;;;;;;18.70;82.50;;;;;;2622432;46;20735;31
2022/04/27 10:43:07;;;;;;;;;;;18.50;84.10;;;;;;2603585;54;19935;31
2022/04/27 10:45:43;;;;;;;;;;;18.40;87.40;;;;;;2603779;54;20576;31
2022/04/27 10:48:20;;;;;;;;;;;18.10;89.20;;;;;;2603785;54;20831;31
2022/04/27 10:51:01;;;;;;;;;;;17.90;89.70;;;;;;2622408;46;19935;31
2022/04/27 10:53:42;;;;;;;;;;;17.70;89.80;;;;;;2622065;46;19935;31
2022/04/27 10:59:32;;;;;;;;;;;17.60;86.40;;;;;;2604087;54;19938;31
2022/04/27 11:02:06;;;;;;;;;;;17.50;88.00;;;;;;2603718;54;19985;31
2022/04/27 11:04:44;;;;;;;;;;;17.40;88.10;;;;;;2603648;54;19934;31
2022/04/27 11:10:15;;;;;;;;;;;17.40;87.30;;;;;;2603638;54;20088;31
2022/04/27 11:12:50;;;;;;;;;;;17.40;88.10;;;;;;2603581;54;20656;31
2022/04/27 11:18:07;;;;;;;;;;;17.30;90.50;;;;;;2622344;46;19956;31
2022/04/27 11:20:44;;;;;;;;;;;17.30;91.30;;;;;;2603733;54;19934;31
2022/04/27 11:23:22;;;;;;;;;;;17.30;91.10;;;;;;2622285;46;19934;31
2022/04/27 11:26:02;;;;;;;;;;;17.40;90.90;;;;;;2622560;46;19942;31
2022/04/27 11:28:41;;;;;;;;;;;17.30;90.80;;;;;;2622138;46;20315;31
2022/04/27 11:31:18;;;;;;;;;;;17.30;90.60;;;;;;2621772;46;19935;31
2022/04/27 11:33:56;;;;;;;;;;;17.30;90.60;;;;;;2603568;54;19935;31
2022/04/27 11:36:34;;;;;;;;;;;17.30;90.00;;;;;;2622043;46;19935;31
2022/04/27 11:39:11;;;;;;;;;;;17.30;91.00;;;;;;2622198;46;20772;31
2022/04/27 11:41:46;;;;;;;;;;;17.30;90.20;;;;;;2621737;46;21203;31
2022/04/27 11:44:34;;;;;;;;;;;17.30;90.30;;;;;;2622220;46;19942;31
2022/04/27 11:50:20;;;;;;;;;;;17.40;90.00;;;;;;2603362;54;20784;31
2022/04/27 11:53:03;;;;;;;;;;;17.50;90.50;;;;;;2622183;46;20771;31
2022/04/27 11:55:38;;;;;;;;;;;17.60;90.80;;;;;;2603754;54;19942;31
2022/04/27 11:58:13;;;;;;;;;;;17.70;89.80;;;;;;2622231;46;20752;31
2022/04/27 12:00:49;;;;;;;;;;;17.70;86.70;;;;;;2773084;31;20468;31
2022/04/27 12:03:27;;;;;;;;;;;17.90;85.90;;;;;;2603702;54;20771;31
2022/04/27 12:06:06;;;;;;;;;;;18.00;88.30;;;;;;2603403;54;20478;31
2022/04/27 12:08:52;;;;;;;;;;;18.10;86.70;;;;;;2603466;54;19938;31
2022/04/27 12:11:33;;;;;;;;;;;18.20;88.20;;;;;;2603565;54;20751;31
2022/04/27 12:14:09;;;;;;;;;;;18.20;86.30;;;;;;2702346;39;20978;31
2022/04/27 12:16:45;;;;;;;;;;;18.30;88.20;;;;;;2603753;54;19935;31
2022/04/27 12:19:39;;;;;;;;;;;18.30;81.70;;;;;;2615370;46;19946;31
2022/04/27 12:22:21;;;;;;;;;;;18.40;81.90;;;;;;2603929;54;19946;31
2022/04/27 12:25:08;;;;;;;;;;;18.30;81.00;;;;;;2622005;46;19941;31
2022/04/27 12:27:48;;;;;;;;;;;18.30;81.20;;;;;;2621780;47;19935;31
2022/04/27 12:30:27;;;;;;;;;;;18.40;79.50;;;;;;2621581;47;20682;31
2022/04/27 12:41:17;;;;;;;;;;;18.40;79.60;;;;;;2621977;47;19934;31
2022/04/27 12:44:11;;;;;;;;;;;18.40;78.70;;;;;;2603511;54;20726;31
2022/04/27 12:47:14;;;;;;;;;;;18.40;79.00;;;;;;2603331;54;20786;31
2022/04/27 12:49:52;;;;;;;;;;;18.30;80.80;;;;;;2621962;47;19934;31
2022/04/27 12:52:41;;;;;;;;;;;18.30;78.80;;;;;;2603372;54;20806;31
2022/04/27 12:55:29;;;;;;;;;;;18.30;80.30;;;;;;2621771;47;19942;31
2022/04/27 12:58:31;;;;;;;;;;;18.30;81.60;;;;;;2603481;54;20461;31
2022/04/27 13:01:29;;;;;;;;;;;18.30;79.20;;;;;;2621757;47;19935;31
2022/04/27 13:06:57;;;;;;;;;;;18.30;80.50;;;;;;2621745;47;20450;31
2022/04/27 13:12:34;;;;;;;;;;;18.30;81.30;;;;;;2622624;46;19950;31
2022/04/27 13:15:22;;;;;;;;;;;18.20;81.40;;;;;;2622723;46;19942;31
2022/04/27 13:17:58;;;;;;;;;;;18.20;82.40;;;;;;2604044;54;19946;31
2022/04/27 13:20:37;;;;;;;;;;;18.20;82.20;;;;;;2603565;54;20839;31
2022/04/27 13:23:17;;;;;;;;;;;18.20;80.60;;;;;;2604070;54;19941;31
2022/04/27 13:25:52;;;;;;;;;;;18.10;83.30;;;;;;2622638;46;20733;31
2022/04/27 13:28:27;;;;;;;;;;;18.00;83.00;;;;;;2622450;46;19943;31
2022/04/27 13:31:02;;;;;;;;;;;18.00;82.50;;;;;;2604148;54;19941;31
2022/04/27 13:33:37;;;;;;;;;;;17.90;84.80;;;;;;2604171;54;19935;31
2022/04/27 13:36:18;;;;;;;;;;;18.00;83.00;;;;;;2622444;46;19935;31
2022/04/27 13:38:55;;;;;;;;;;;17.90;82.50;;;;;;2604223;54;19941;31
2022/04/27 13:41:30;;;;;;;;;;;17.90;82.20;;;;;;2603939;54;19943;31
2022/04/27 13:44:07;;;;;;;;;;;18.00;83.50;;;;;;2622463;46;19941;31
2022/04/27 13:49:35;;;;;;;;;;;17.90;81.90;;;;;;2604058;54;19946;31
2022/04/27 13:52:12;;;;;;;;;;;17.80;85.90;;;;;;2604324;54;20597;31
2022/04/27 13:57:38;;;;;;;;;;;17.90;82.70;;;;;;2603195;54;20461;31
2022/04/27 14:00:22;;;;;;;;;;;17.90;83.90;;;;;;2622731;46;20478;31
2022/04/27 14:02:58;;;;;;;;;;;17.90;82.60;;;;;;2622513;46;20489;31
2022/04/27 14:05:34;;;;;;;;;;;18.00;83.30;;;;;;2603980;54;20026;31
2022/04/27 14:08:12;;;;;;;;;;;18.00;84.00;;;;;;2603824;54;20806;31
2022/04/27 14:13:38;;;;;;;;;;;18.10;82.30;;;;;;2622592;46;19941;31
2022/04/27 14:19:07;;;;;;;;;;;18.20;82.20;;;;;;2604059;54;20461;31
2022/04/27 14:21:43;;;;;;;;;;;18.20;81.70;;;;;;2603772;54;20816;31
2022/04/27 14:24:18;;;;;;;;;;;18.20;81.00;;;;;;2603652;54;20034;31
2022/04/27 14:26:55;;;;;;;;;;;18.30;83.70;;;;;;2622367;46;19990;31
2022/04/27 14:29:30;;;;;;;;;;;18.30;81.00;;;;;;2603791;54;20690;31
2022/04/27 14:32:10;;;;;;;;;;;18.20;81.70;;;;;;2622398;46;19941;31
2022/04/27 14:34:50;;;;;;;;;;;18.20;83.00;;;;;;2622533;46;20033;31
2022/04/27 14:37:31;;;;;;;;;;;18.20;84.00;;;;;;2622438;46;19989;31
2022/04/27 14:40:09;;;;;;;;;;;18.20;81.50;;;;;;2622603;46;19941;31
2022/04/27 14:42:44;;;;;;;;;;;18.00;81.80;;;;;;2603772;54;19989;31
2022/04/27 14:45:28;;;;;;;;;;;17.90;83.30;;;;;;2622640;46;19935;31
2022/04/27 14:48:08;;;;;;;;;;;17.90;82.40;;;;;;2622345;46;19938;31
2022/04/27 14:50:47;;;;;;;;;;;17.90;81.80;;;;;;2773961;31;21082;31
2022/04/27 14:53:47;;;;;;;;;;;17.90;82.00;;;;;;2603819;54;20499;31
2022/04/27 14:56:29;;;;;;;;;;;17.70;85.70;;;;;;2622424;46;20779;31
2022/04/27 14:59:05;;;;;;;;;;;17.70;84.40;;;;;;2603767;54;20747;31
2022/04/27 15:01:43;;;;;;;;;;;17.70;85.20;;;;;;2721186;39;20935;31
2022/04/27 15:04:22;;;;;;;;;;;17.70;85.90;;;;;;2622462;46;19935;31
2022/04/27 15:06:59;;;;;;;;;;;17.70;82.60;;;;;;2603395;54;20805;31
2022/04/27 15:09:34;;;;;;;;;;;17.80;84.70;;;;;;2604050;54;19943;31
2022/04/27 15:12:23;;;;;;;;;;;;;;;;;;;;;
2022/04/27 15:15:01;;;;;;;;;;;17.80;84.80;;;;;;2603466;54;20815;31
2022/04/27 15:17:39;;;;;;;;;;;17.80;85.00;;;;;;2603526;54;19942;31
2022/04/27 15:23:10;;;;;;;;;;;17.80;84.50;;;;;;2622426;46;20013;31
2022/04/27 15:25:48;;;;;;;;;;;17.70;86.10;;;;;;2603591;54;19956;31
2022/04/27 15:28:26;;;;;;;;;;;17.70;84.10;;;;;;2603723;54;19938;31
2022/04/27 15:31:06;;;;;;;;;;;17.60;85.60;;;;;;2603601;54;19935;31
2022/04/27 15:33:53;;;;;;;;;;;17.50;83.90;;;;;;2603645;54;20872;31
2022/04/27 15:36:30;;;;;;;;;;;17.40;84.60;;;;;;2621918;46;20912;31
2022/04/27 15:39:07;;;;;;;;;;;17.30;85.60;;;;;;2622037;46;20892;31
2022/04/27 15:41:50;;;;;;;;;;;17.20;86.50;;;;;;2603880;54;19939;31
2022/04/27 15:44:26;;;;;;;;;;;17.20;85.30;;;;;;2603842;54;19935;31
2022/04/27 15:47:06;;;;;;;;;;;17.10;85.90;;;;;;2621412;46;19947;31
2022/04/27 15:49:41;;;;;;;;;;;17.10;86.10;;;;;;2603466;54;19942;31
2022/04/27 15:52:16;;;;;;;;;;;17.00;87.20;;;;;;2603680;54;20024;31
2022/04/27 15:54:56;;;;;;;;;;;16.90;87.20;;;;;;2702286;39;20374;31
2022/04/27 16:00:26;;;;;;;;;;;16.80;89.10;;;;;;2702195;39;20930;31
2022/04/27 16:09:21;;;;;;;;;;;16.70;90.30;;;;;;2603454;46;19986;31
2022/04/27 16:11:59;;;;;;;;;;;16.60;90.60;;;;;;2603405;54;19934;31
2022/04/27 16:17:45;;;;;;;;;;;16.70;89.00;;;;;;2603435;54;19954;31
2022/04/27 16:20:50;;;;;;;;;;;;;;;;;;;;;
2022/04/27 16:23:40;;;;;;;;;;;16.70;90.00;;;;;;2603642;54;19989;31
2022/04/27 16:26:24;;;;;;;;;;;16.60;89.90;;;;;;2603388;54;19946;31
2022/04/27 16:29:33;;;;;;;;;;;;;;;;;;;;;
2022/04/27 16:35:35;;;;;;;;;;;16.40;91.10;;;;;;2603377;54;21357;31
2022/04/27 16:38:34;;;;;;;;;;;16.40;90.40;;;;;;2603700;54;19939;31
2022/04/27 16:41:18;;;;;;;;;;;16.30;90.30;;;;;;2603433;54;19950;31
2022/04/27 16:44:01;;;;;;;;;;;16.20;90.60;;;;;;2603508;54;19935;31
2022/04/27 16:46:38;;;;;;;;;;;16.20;90.20;;;;;;2603116;54;19949;31
2022/04/27 16:49:15;;;;;;;;;;;16.10;89.40;;;;;;2618367;46;19942;31
2022/04/27 16:51:52;;;;;;;;;;;16.10;90.30;;;;;;2604174;54;20612;31
2022/04/27 16:54:32;;;;;;;;;;;16.20;93.30;;;;;;2604177;54;19935;31
2022/04/27 16:57:13;;;;;;;;;;;16.30;92.60;;;;;;2604064;54;19943;31
2022/04/27 16:59:50;;;;;;;;;;;16.30;90.50;;;;;;2703054;39;21346;31
2022/04/27 17:02:27;;;;;;;;;;;16.30;90.60;;;;;;2604107;54;19942;31
2022/04/27 17:05:02;;;;;;;;;;;16.20;90.90;;;;;;2604593;46;20814;31
2022/04/27 17:07:37;;;;;;;;;;;16.20;91.10;;;;;;2622479;46;20527;31
2022/04/27 17:10:18;;;;;;;;;;;16.20;91.60;;;;;;2604009;54;19990;31
2022/04/27 17:12:53;;;;;;;;;;;16.10;91.40;;;;;;2603974;54;19938;31
2022/04/27 17:15:29;;;;;;;;;;;16.10;91.50;;;;;;2620090;46;19935;31
2022/04/27 17:18:08;;;;;;;;;;;16.00;91.50;;;;;;2604032;54;19961;31
2022/04/27 17:20:51;;;;;;;;;;;16.00;91.80;;;;;;2604002;54;19954;31